Time;durP1;ratioP1;P1;durP2;ratioP2;P2;SDS_P1;SDS_P2;PMS_P1;PMS_P2;Temp;Humidity;BMP_temperature;BMP_pressure;BME280_temperature;BME280_humidity;BME280_pressure;Samples;Min_cycle;Max_cycle;Signal;HPM_P1;HPM_P2
2023/04/08 00:01:04;;;;;;;1999.90;999.90;;;;;;;8.00;50.75;97867.44;5140265;27;20048;-83
2023/04/08 00:03:30;;;;;;;1999.90;999.90;;;;;;;7.87;50.83;97856.34;5142226;27;20051;-84
2023/04/08 00:05:55;;;;;;;1999.90;999.90;;;;;;;7.95;51.28;97870.22;5141968;27;20059;-87
2023/04/08 00:08:20;;;;;;;1999.90;999.90;;;;;;;7.89;51.97;97874.03;5138448;28;20043;-83
2023/04/08 00:10:46;;;;;;;1999.90;999.90;;;;;;;7.89;51.51;97873.22;5140321;28;20031;-90
2023/04/08 00:13:12;;;;;;;1999.90;999.90;;;;;;;7.84;51.94;97867.78;5143281;27;20019;-85
2023/04/08 00:15:37;;;;;;;1999.90;999.90;;;;;;;7.81;52.05;97871.06;5143369;27;20160;-84
2023/04/08 00:18:03;;;;;;;1999.90;999.90;;;;;;;7.76;52.18;97874.66;5142582;27;20588;-79
2023/04/08 00:20:28;;;;;;;1999.90;999.90;;;;;;;7.67;52.72;97867.34;5138822;27;20030;-84
2023/04/08 00:22:54;;;;;;;1999.90;999.90;;;;;;;7.65;52.95;97858.63;5139670;27;20033;-83
2023/04/08 00:25:19;;;;;;;1999.90;999.90;;;;;;;7.58;53.64;97863.56;5138660;27;20023;-83
2023/04/08 00:27:44;;;;;;;1999.90;999.90;;;;;;;7.58;53.99;97858.13;5138248;27;20051;-83
2023/04/08 00:30:10;;;;;;;1999.90;999.90;;;;;;;7.43;53.71;97840.75;5139013;27;20023;-83
2023/04/08 00:32:36;;;;;;;1999.90;999.90;;;;;;;7.49;53.75;97857.88;5138706;27;20021;-85
2023/04/08 00:35:01;;;;;;;1999.90;999.90;;;;;;;7.50;53.86;97862.22;5138194;27;20091;-84
2023/04/08 00:37:26;;;;;;;1999.90;999.90;;;;;;;7.34;54.51;97850.59;5138843;27;20054;-81
2023/04/08 00:39:53;;;;;;;1999.90;999.90;;;;;;;7.26;54.56;97843.00;5139070;27;20019;-84
2023/04/08 00:42:18;;;;;;;1999.90;999.90;;;;;;;7.36;55.02;97867.44;5138162;27;20468;-83
2023/04/08 00:44:44;;;;;;;1999.90;999.90;;;;;;;7.33;54.87;97856.31;5139448;27;20019;-87
2023/04/08 00:47:13;;;;;;;1999.90;999.90;;;;;;;7.20;55.67;97860.44;5140124;27;20038;-84
2023/04/08 00:49:39;;;;;;;1999.90;999.90;;;;;;;7.10;56.22;97859.63;5140458;27;20053;-86
2023/04/08 00:52:04;;;;;;;1999.90;999.90;;;;;;;7.07;56.51;97852.03;5140877;27;20019;-87
2023/04/08 00:54:30;;;;;;;1999.90;999.90;;;;;;;7.08;56.32;97857.16;5141850;27;20037;-81
2023/04/08 00:56:58;;;;;;;1999.90;999.90;;;;;;;6.97;56.40;97853.66;5141403;27;20039;-82
2023/04/08 00:59:24;;;;;;;1999.90;999.90;;;;;;;6.82;56.75;97833.84;5142285;27;20019;-85
2023/04/08 01:01:58;;;;;;;1999.90;999.90;;;;;;;6.87;57.61;97847.41;5138944;27;20050;-82
2023/04/08 01:04:29;;;;;;;1999.90;999.90;;;;;;;6.85;58.52;97849.59;5138106;27;20038;-86
2023/04/08 01:07:16;;;;;;;1999.90;999.90;;;;;;;6.77;58.90;97839.28;5120082;27;20032;-85
2023/04/08 01:09:45;;;;;;;1999.90;999.90;;;;;;;6.69;59.36;97846.09;5139406;27;20652;-89
2023/04/08 01:12:16;;;;;;;1999.90;999.90;;;;;;;6.69;59.65;97845.28;5141948;27;20023;-87
2023/04/08 01:14:43;;;;;;;1999.90;999.90;;;;;;;6.65;60.12;97839.56;5139397;27;20045;-81
2023/04/08 01:17:10;;;;;;;1999.90;999.90;;;;;;;6.67;60.70;97836.59;5137933;27;20031;-82
2023/04/08 01:19:39;;;;;;;1999.90;999.90;;;;;;;6.68;60.98;97841.75;5138008;27;20052;-84
2023/04/08 01:22:18;;;;;;;1999.90;999.90;;;;;;;6.53;61.70;97835.50;5136840;27;20056;-83
2023/04/08 01:24:46;;;;;;;1999.90;999.90;;;;;;;6.54;62.49;97834.41;5137372;27;20053;-81
2023/04/08 01:27:12;;;;;;;1999.90;999.90;;;;;;;6.42;62.94;97827.34;5137001;27;20023;-82
2023/04/08 01:29:39;;;;;;;1999.90;999.90;;;;;;;6.32;63.95;97830.06;5137351;27;20084;-85
2023/04/08 01:32:07;;;;;;;1999.90;999.90;;;;;;;6.22;64.59;97829.25;5136557;27;20031;-85
2023/04/08 01:34:34;;;;;;;1999.90;999.90;;;;;;;6.09;64.94;97827.06;5137214;27;20046;-84
2023/04/08 01:37:01;;;;;;;1999.90;999.90;;;;;;;5.97;65.52;97819.16;5136409;27;20083;-86
2023/04/08 01:39:29;;;;;;;1999.90;999.90;;;;;;;6.25;65.39;97834.94;5136934;27;20031;-81
2023/04/08 01:41:57;;;;;;;1999.90;999.90;;;;;;;6.17;65.48;97834.69;5135916;27;20464;-80
2023/04/08 01:44:25;;;;;;;1999.90;999.90;;;;;;;6.18;65.40;97828.97;5135670;27;20098;-81
2023/04/08 01:46:52;;;;;;;1999.90;999.90;;;;;;;6.04;65.84;97825.16;5135123;27;20031;-83
2023/04/08 01:49:19;;;;;;;1999.90;999.90;;;;;;;6.07;66.05;97832.75;5135304;27;20019;-85
2023/04/08 01:51:46;;;;;;;1999.90;999.90;;;;;;;5.96;66.62;97831.09;5135754;27;20065;-83
2023/04/08 01:54:11;;;;;;;1999.90;999.90;;;;;;;6.03;66.92;97830.84;5135621;27;20016;-83
2023/04/08 01:56:40;;;;;;;1999.90;999.90;;;;;;;5.99;67.08;97836.00;5136815;27;20034;-82
2023/04/08 01:59:10;;;;;;;1999.90;999.90;;;;;;;5.95;67.44;97829.50;5140036;27;20019;-84
2023/04/08 02:01:36;;;;;;;1999.90;999.90;;;;;;;5.93;68.47;97827.03;5141432;27;20101;-85
2023/04/08 02:04:03;;;;;;;1999.90;999.90;;;;;;;5.92;68.64;97835.44;5138069;27;20103;-82
2023/04/08 02:06:29;;;;;;;1999.90;999.90;;;;;;;6.04;68.05;97822.44;5138023;27;20027;-85
2023/04/08 02:08:55;;;;;;;1999.90;999.90;;;;;;;5.90;68.72;97821.31;5138353;27;20138;-80
2023/04/08 02:11:21;;;;;;;1999.90;999.90;;;;;;;6.02;68.75;97819.16;5139785;27;20073;-82
2023/04/08 02:13:47;;;;;;;1999.90;999.90;;;;;;;5.84;69.12;97814.22;5140667;27;20156;-83
2023/04/08 02:16:21;;;;;;;1999.90;999.90;;;;;;;5.93;69.02;97821.59;5139568;27;20062;-81
2023/04/08 02:19:05;;;;;;;1999.90;999.90;;;;;;;5.97;69.26;97821.88;5138564;27;20114;-84
2023/04/08 02:21:37;;;;;;;1999.90;999.90;;;;;;;5.90;69.62;97824.03;5139116;27;20419;-86
2023/04/08 02:24:07;;;;;;;1999.90;999.90;;;;;;;5.87;70.28;97808.28;5138476;27;20039;-84
2023/04/08 02:26:35;;;;;;;1999.90;999.90;;;;;;;5.92;70.94;97825.38;5138516;27;20026;-82
2023/04/08 02:29:03;;;;;;;1999.90;999.90;;;;;;;5.76;71.21;97822.91;5131679;27;20027;-83
2023/04/08 02:31:29;;;;;;;1999.90;999.90;;;;;;;5.69;72.09;97814.19;5116526;28;20393;-79
2023/04/08 02:33:56;;;;;;;1999.90;999.90;;;;;;;5.81;72.09;97822.91;5116740;28;20108;-85
2023/04/08 02:36:22;;;;;;;1999.90;999.90;;;;;;;5.81;71.75;97822.91;5116285;28;20035;-83
2023/04/08 02:38:50;;;;;;;1999.90;999.90;;;;;;;5.73;71.71;97826.16;5115376;28;20023;-82
2023/04/08 02:41:16;;;;;;;1999.90;999.90;;;;;;;5.70;72.11;97819.34;5116047;28;20030;-85
2023/04/08 02:43:41;;;;;;;1999.90;999.90;;;;;;;5.65;72.90;97808.47;5116716;28;20027;-85
2023/04/08 02:46:08;;;;;;;1999.90;999.90;;;;;;;5.72;72.55;97829.94;5116258;28;20046;-87
2023/04/08 02:48:33;;;;;;;1999.90;999.90;;;;;;;5.78;73.09;97828.88;5115766;28;20027;-83
2023/04/08 02:50:59;;;;;;;1999.90;999.90;;;;;;;5.72;73.10;97805.50;5115631;28;20073;-80
2023/04/08 02:53:25;;;;;;;1999.90;999.90;;;;;;;5.88;72.28;97823.50;5112634;28;20027;-82
2023/04/08 02:55:50;;;;;;;1999.90;999.90;;;;;;;5.91;72.34;97823.78;5113410;28;20043;-83
2023/04/08 02:58:16;;;;;;;1999.90;999.90;;;;;;;5.83;71.75;97826.97;5114154;28;20103;-81
2023/04/08 03:00:41;;;;;;;1999.90;999.90;;;;;;;5.75;71.72;97808.50;5114235;28;20028;-85
2023/04/08 03:03:07;;;;;;;1999.90;999.90;;;;;;;5.84;72.25;97808.78;5116186;28;20019;-85
2023/04/08 03:05:32;;;;;;;1999.90;999.90;;;;;;;5.84;71.66;97825.06;5115071;28;20024;-82
2023/04/08 03:07:58;;;;;;;1999.90;999.90;;;;;;;5.80;72.75;97822.06;5119852;27;20445;-85
2023/04/08 03:10:23;;;;;;;1999.90;999.90;;;;;;;5.86;73.30;97840.03;5114387;27;20027;-79
2023/04/08 03:12:49;;;;;;;1999.90;999.90;;;;;;;5.89;72.45;97833.25;5131491;27;20026;-78
2023/04/08 03:15:14;;;;;;;1999.90;999.90;;;;;;;5.91;72.90;97823.78;5129876;27;20055;-77
2023/04/08 03:17:40;;;;;;;1999.90;999.90;;;;;;;5.93;72.23;97831.63;5130945;27;20023;-77
2023/04/08 03:20:06;;;;;;;1999.90;999.90;;;;;;;5.99;72.46;97824.31;5131263;27;20019;-77
2023/04/08 03:22:32;;;;;;;1999.90;999.90;;;;;;;5.82;72.28;97798.22;5131956;27;20020;-80
2023/04/08 03:24:58;;;;;;;1999.90;999.90;;;;;;;5.82;71.98;97783.84;5132331;27;20023;-77
2023/04/08 03:27:23;;;;;;;1999.90;999.90;;;;;;;6.13;72.08;97831.69;5131960;27;20034;-77
2023/04/08 03:29:49;;;;;;;1999.90;999.90;;;;;;;6.03;73.07;97815.38;5131552;27;20103;-78
2023/04/08 03:32:14;;;;;;;1999.90;999.90;;;;;;;5.92;73.12;97814.53;5132081;28;20019;-79
2023/04/08 03:34:40;;;;;;;1999.90;999.90;;;;;;;5.96;73.76;97835.72;5133646;27;20031;-75
2023/04/08 03:37:05;;;;;;;1999.90;999.90;;;;;;;5.88;73.75;97828.94;5133147;27;20526;-77
2023/04/08 03:39:31;;;;;;;1999.90;999.90;;;;;;;5.79;73.74;97814.22;5132204;27;20026;-77
2023/04/08 03:41:59;;;;;;;1999.90;999.90;;;;;;;5.79;73.50;97828.63;5113417;28;20084;-76
2023/04/08 03:44:25;;;;;;;1999.90;999.90;;;;;;;5.76;73.53;97820.19;5132263;28;20633;-77
2023/04/08 03:46:50;;;;;;;1999.90;999.90;;;;;;;5.76;73.08;97820.19;5132734;28;20461;-77
2023/04/08 03:49:15;;;;;;;1999.90;999.90;;;;;;;5.78;73.06;97834.28;5136060;27;20092;-77
2023/04/08 03:51:41;;;;;;;1999.90;999.90;;;;;;;5.73;72.99;97831.56;5139533;27;20031;-80
2023/04/08 03:54:06;;;;;;;1999.90;999.90;;;;;;;5.68;74.00;97826.13;5139247;27;20083;-77
2023/04/08 03:56:32;;;;;;;1999.90;999.90;;;;;;;5.73;73.21;97826.94;5139889;27;20072;-80
2023/04/08 03:58:57;;;;;;;1999.90;999.90;;;;;;;5.72;73.13;97835.38;5136144;27;20015;-81
2023/04/08 04:01:22;;;;;;;1999.90;999.90;;;;;;;5.73;73.65;97837.78;5136354;27;20030;-77
2023/04/08 04:03:48;;;;;;;1999.90;999.90;;;;;;;5.86;73.62;97836.50;5135965;27;20027;-81
2023/04/08 04:06:13;;;;;;;1999.90;999.90;;;;;;;5.82;74.38;97841.66;5136925;27;20063;-79
2023/04/08 04:08:38;;;;;;;1999.90;999.90;;;;;;;5.69;74.54;97834.00;5138332;27;20445;-78
2023/04/08 04:11:04;;;;;;;1999.90;999.90;;;;;;;5.75;75.08;97840.25;5137311;27;20027;-76
2023/04/08 04:13:29;;;;;;;1999.90;999.90;;;;;;;5.58;74.52;97817.94;5136012;27;20022;-77
2023/04/08 04:15:56;;;;;;;1999.90;999.90;;;;;;;5.74;72.83;97844.03;5135618;27;20043;-78
2023/04/08 04:18:21;;;;;;;1999.90;999.90;;;;;;;5.70;73.02;97838.31;5135523;27;20040;-79
2023/04/08 04:20:47;;;;;;;1999.90;999.90;;;;;;;5.72;73.14;97849.75;5135606;27;20019;-79
2023/04/08 04:23:12;;;;;;;1999.90;999.90;;;;;;;5.67;73.74;97843.50;5136360;27;20482;-78
2023/04/08 04:25:40;;;;;;;1999.90;999.90;;;;;;;5.72;73.06;97846.22;5136848;27;20027;-78
2023/04/08 04:28:06;;;;;;;1999.90;999.90;;;;;;;5.76;72.82;97841.91;5136556;27;20034;-78
2023/04/08 04:30:32;;;;;;;1999.90;999.90;;;;;;;5.87;72.63;97849.00;5136198;27;20019;-77
2023/04/08 04:32:57;;;;;;;1999.90;999.90;;;;;;;5.70;74.41;97842.97;5135218;27;20035;-78
2023/04/08 04:35:23;;;;;;;1999.90;999.90;;;;;;;5.63;75.78;97845.09;5135502;27;20476;-81
2023/04/08 04:37:50;;;;;;;1999.90;999.90;;;;;;;5.57;76.68;97843.47;5135977;27;20023;-79
2023/04/08 04:40:16;;;;;;;1999.90;999.90;;;;;;;5.58;76.03;97845.06;5135926;27;20027;-78
2023/04/08 04:42:41;;;;;;;1999.90;999.90;;;;;;;5.55;76.20;97842.88;5136042;27;20379;-81
2023/04/08 04:45:08;;;;;;;1999.90;999.90;;;;;;;5.45;76.88;97845.59;5135888;27;20019;-80
2023/04/08 04:47:33;;;;;;;1999.90;999.90;;;;;;;5.49;77.40;97852.09;5135689;27;20068;-78
2023/04/08 04:49:59;;;;;;;1999.90;999.90;;;;;;;5.56;77.26;97852.66;5134840;27;20417;-79
2023/04/08 04:52:24;;;;;;;1999.90;999.90;;;;;;;5.56;77.94;97847.25;5134772;27;20069;-77
2023/04/08 04:54:50;;;;;;;1999.90;999.90;;;;;;;5.62;77.22;97848.88;5135029;27;20030;-81
2023/04/08 04:57:15;;;;;;;1999.90;999.90;;;;;;;5.65;77.30;97860.03;5134992;27;20026;-78
2023/04/08 04:59:41;;;;;;;1999.90;999.90;;;;;;;5.67;77.13;97860.56;5135020;27;20019;-78
2023/04/08 05:02:06;;;;;;;1999.90;999.90;;;;;;;5.67;77.38;97854.34;5134332;27;20023;-78
2023/04/08 05:04:31;;;;;;;1999.90;999.90;;;;;;;5.77;77.13;97865.22;5134500;27;20043;-81
2023/04/08 05:06:58;;;;;;;1999.90;999.90;;;;;;;5.85;76.69;97859.28;5135022;27;20088;-80
2023/04/08 05:09:24;;;;;;;1999.90;999.90;;;;;;;5.87;76.24;97854.44;5135020;27;20043;-80
2023/04/08 05:11:50;;;;;;;1999.90;999.90;;;;;;;5.90;76.25;97867.47;5135939;27;20519;-79
2023/04/08 05:14:15;;;;;;;1999.90;999.90;;;;;;;5.95;75.54;97866.66;5137067;27;20023;-77
2023/04/08 05:16:40;;;;;;;1999.90;999.90;;;;;;;6.06;75.01;97868.31;5137925;27;20024;-79
2023/04/08 05:19:06;;;;;;;1999.90;999.90;;;;;;;6.20;74.38;97867.50;5135289;27;20034;-78
2023/04/08 05:21:31;;;;;;;1999.90;999.90;;;;;;;6.15;73.58;97859.38;5135089;27;20049;-80
2023/04/08 05:23:56;;;;;;;1999.90;999.90;;;;;;;6.30;71.59;97875.69;5121878;27;20038;-78
2023/04/08 05:26:22;;;;;;;1999.90;999.90;;;;;;;6.36;70.90;97874.59;5131164;27;20084;-79
2023/04/08 05:28:50;;;;;;;1999.90;999.90;;;;;;;6.19;70.91;97860.47;5130328;27;20038;-80
2023/04/08 05:31:16;;;;;;;1999.90;999.90;;;;;;;6.38;71.48;97872.44;5113619;28;20116;-79
2023/04/08 05:33:41;;;;;;;1999.90;999.90;;;;;;;6.15;71.88;97856.66;5117048;28;20024;-81
2023/04/08 05:36:07;;;;;;;1999.90;999.90;;;;;;;6.19;71.94;97868.63;5122695;28;20046;-75
2023/04/08 05:38:32;;;;;;;1999.90;999.90;;;;;;;6.22;71.51;97865.38;5113354;28;20016;-76
2023/04/08 05:40:57;;;;;;;1999.90;999.90;;;;;;;6.26;70.99;97880.03;5116285;27;20106;-79
2023/04/08 05:43:26;;;;;;;1999.90;999.90;;;;;;;6.23;70.38;97879.75;5134373;27;20755;-77
2023/04/08 05:45:51;;;;;;;1999.90;999.90;;;;;;;6.29;71.18;97893.09;5134937;27;20392;-78
2023/04/08 05:48:16;;;;;;;1999.90;999.90;;;;;;;6.28;71.02;97888.72;5135715;27;20023;-85
2023/04/08 05:50:42;;;;;;;1999.90;999.90;;;;;;;6.24;71.47;97890.34;5135411;27;20023;-85
2023/04/08 05:53:08;;;;;;;1999.90;999.90;;;;;;;6.23;72.16;97902.31;5134965;27;20031;-83
2023/04/08 05:55:34;;;;;;;1999.90;999.90;;;;;;;6.26;72.36;97901.78;5133608;27;20038;-81
2023/04/08 05:57:59;;;;;;;1999.90;999.90;;;;;;;5.81;73.41;97893.47;5134325;27;20387;-85
2023/04/08 06:00:25;;;;;;;1999.90;999.90;;;;;;;6.01;73.66;97896.28;5134184;27;20054;-82
2023/04/08 06:02:51;;;;;;;1999.90;999.90;;;;;;;6.18;72.09;97901.47;5134762;27;20038;-79
2023/04/08 06:05:17;;;;;;;1999.90;999.90;;;;;;;6.15;72.68;97905.53;5132557;27;20035;-84
2023/04/08 06:07:43;;;;;;;1999.90;999.90;;;;;;;6.27;71.57;97903.38;5132902;27;20451;-80
2023/04/08 06:10:09;;;;;;;1999.90;999.90;;;;;;;6.32;70.77;97897.97;5133468;27;20069;-83
2023/04/08 06:12:36;;;;;;;1999.90;999.90;;;;;;;6.20;71.08;97877.59;5133267;27;20065;-83
2023/04/08 06:15:01;;;;;;;1999.90;999.90;;;;;;;6.18;71.75;97899.56;5134516;27;20433;-82
2023/04/08 06:17:27;;;;;;;1999.90;999.90;;;;;;;6.46;70.93;97899.06;5138548;27;20015;-79
2023/04/08 06:19:52;;;;;;;1999.90;999.90;;;;;;;6.36;69.99;97899.06;5143645;27;20064;-79
2023/04/08 06:22:19;;;;;;;1999.90;999.90;;;;;;;6.39;70.08;97901.22;5134932;27;20055;-85
2023/04/08 06:24:46;;;;;;;1999.90;999.90;;;;;;;6.27;70.39;97897.94;5134418;27;20031;-85
2023/04/08 06:27:12;;;;;;;1999.90;999.90;;;;;;;6.45;70.02;97904.78;5136328;27;20382;-85
2023/04/08 06:29:37;;;;;;;1999.90;999.90;;;;;;;6.54;70.02;97895.00;5133436;27;20023;-81
2023/04/08 06:32:02;;;;;;;1999.90;999.90;;;;;;;6.47;69.37;97887.13;5134506;27;20098;-79
2023/04/08 06:34:28;;;;;;;1999.90;999.90;;;;;;;6.55;69.20;97901.28;5115846;27;20027;-79
2023/04/08 06:36:53;;;;;;;1999.90;999.90;;;;;;;6.66;69.23;97913.75;5134310;27;20037;-83
2023/04/08 06:39:20;;;;;;;1999.90;999.90;;;;;;;6.52;69.37;97913.47;5135812;27;20020;-78
2023/04/08 06:41:45;;;;;;;1999.90;999.90;;;;;;;6.62;69.35;97912.66;5138280;27;20066;-77
2023/04/08 06:44:11;;;;;;;1999.90;999.90;;;;;;;6.77;69.14;97909.94;5132067;27;20035;-80
2023/04/08 06:46:36;;;;;;;1999.90;999.90;;;;;;;6.69;69.27;97914.03;5133348;27;20031;-80
2023/04/08 06:49:03;;;;;;;1999.90;999.90;;;;;;;6.38;70.19;97915.91;5132665;27;20019;-77
2023/04/08 06:51:28;;;;;;;1999.90;999.90;;;;;;;6.70;70.57;97914.84;5133367;27;20038;-76
2023/04/08 06:53:54;;;;;;;1999.90;999.90;;;;;;;6.86;70.09;97916.50;5132712;27;20027;-76
2023/04/08 06:56:21;;;;;;;1999.90;999.90;;;;;;;6.81;70.23;97909.13;5129713;27;20031;-76
2023/04/08 06:58:46;;;;;;;1999.90;999.90;;;;;;;6.91;69.95;97919.19;5152018;27;20023;-76
2023/04/08 07:01:12;;;;;;;1999.90;999.90;;;;;;;6.62;69.47;97909.94;5152229;27;20033;-75
2023/04/08 07:03:37;;;;;;;1999.90;999.90;;;;;;;6.69;69.40;97915.94;5152670;27;20023;-74
2023/04/08 07:06:03;;;;;;;1999.90;999.90;;;;;;;6.47;69.63;97935.22;5152503;27;20021;-75
2023/04/08 07:08:28;;;;;;;1999.90;999.90;;;;;;;6.64;69.82;97929.53;5152586;27;20043;-76
2023/04/08 07:10:54;;;;;;;1999.90;999.90;;;;;;;6.82;68.92;97932.53;5152994;27;20034;-75
2023/04/08 07:13:19;;;;;;;1999.90;999.90;;;;;;;6.80;68.80;97931.16;5154337;27;20026;-75
2023/04/08 07:15:44;;;;;;;1999.90;999.90;;;;;;;6.79;69.27;97938.50;5153719;27;20056;-79
2023/04/08 07:18:12;;;;;;;1999.90;999.90;;;;;;;6.70;69.38;97940.13;5153044;27;20026;-79
2023/04/08 07:20:37;;;;;;;1999.90;999.90;;;;;;;6.79;69.64;97943.13;5134212;27;20364;-76
2023/04/08 07:23:03;;;;;;;1999.90;999.90;;;;;;;6.91;68.93;97946.38;5134337;27;20126;-76
2023/04/08 07:25:29;;;;;;;1999.90;999.90;;;;;;;6.85;69.16;97947.47;5152018;27;20034;-75
2023/04/08 07:27:55;;;;;;;1999.90;999.90;;;;;;;7.01;68.69;97951.84;5153374;27;20015;-75
2023/04/08 07:30:21;;;;;;;1999.90;999.90;;;;;;;7.10;67.89;97943.94;5152433;27;20069;-75
2023/04/08 07:32:46;;;;;;;1999.90;999.90;;;;;;;7.14;67.44;97948.53;5152644;27;20034;-75
2023/04/08 07:35:12;;;;;;;1999.90;999.90;;;;;;;7.19;67.61;97954.00;5153109;27;20030;-76
2023/04/08 07:37:37;;;;;;;1999.90;999.90;;;;;;;7.40;67.27;97961.03;5144515;27;20410;-74
2023/04/08 07:40:02;;;;;;;1999.90;999.90;;;;;;;7.54;66.34;97951.22;5130992;27;20030;-75
2023/04/08 07:42:28;;;;;;;1999.90;999.90;;;;;;;7.67;66.12;97958.00;5131292;27;20020;-77
2023/04/08 07:44:53;;;;;;;1999.90;999.90;;;;;;;7.83;66.32;97967.72;5133610;27;20031;-77
2023/04/08 07:47:19;;;;;;;1999.90;999.90;;;;;;;7.84;66.61;97966.63;5132682;27;20051;-77
2023/04/08 07:49:47;;;;;;;1999.90;999.90;;;;;;;7.97;66.22;97970.69;5132166;28;20023;-77
2023/04/08 07:52:12;;;;;;;1999.90;999.90;;;;;;;7.95;66.17;97972.88;5134173;28;20027;-84
2023/04/08 07:54:38;;;;;;;1999.90;999.90;;;;;;;7.98;66.63;97983.22;5131822;27;20076;-75
2023/04/08 07:57:03;;;;;;;1999.90;999.90;;;;;;;8.09;69.18;97973.91;5132343;28;20030;-78
2023/04/08 07:59:29;;;;;;;1999.90;999.90;;;;;;;8.29;70.57;97976.56;5133291;28;20487;-77
2023/04/08 08:01:55;;;;;;;1999.90;999.90;;;;;;;8.47;69.34;97978.66;5134000;28;20023;-82
2023/04/08 08:04:20;;;;;;;1999.90;999.90;;;;;;;8.73;66.21;97989.41;5135022;28;20472;-81
2023/04/08 08:06:46;;;;;;;1999.90;999.90;;;;;;;8.99;66.64;97983.47;5134833;28;20134;-77
2023/04/08 08:09:12;;;;;;;1999.90;999.90;;;;;;;8.90;63.90;97968.00;5133095;27;20047;-76
2023/04/08 08:11:38;;;;;;;1999.90;999.90;;;;;;;8.73;63.67;97984.78;5131283;28;20399;-75
2023/04/08 08:14:03;;;;;;;1999.90;999.90;;;;;;;8.41;64.60;97941.63;5111941;28;20102;-75
2023/04/08 08:16:30;;;;;;;1999.90;999.90;;;;;;;8.69;63.86;97986.44;5130071;28;20023;-75
2023/04/08 08:18:56;;;;;;;1999.90;999.90;;;;;;;8.74;63.60;97988.31;5130569;27;20015;-75
2023/04/08 08:21:21;;;;;;;1999.90;999.90;;;;;;;9.07;62.57;97995.72;5130349;28;20075;-77
2023/04/08 08:23:47;;;;;;;1999.90;999.90;;;;;;;9.32;61.39;98003.69;5131790;27;20499;-77
2023/04/08 08:26:12;;;;;;;1999.90;999.90;;;;;;;9.95;60.21;98000.91;5130505;28;20029;-76
2023/04/08 08:28:39;;;;;;;1999.90;999.90;;;;;;;10.01;56.24;97995.09;5130647;27;20475;-75
2023/04/08 08:31:04;;;;;;;1999.90;999.90;;;;;;;10.42;55.72;97989.97;5130099;27;20034;-75
2023/04/08 08:33:31;;;;;;;1999.90;999.90;;;;;;;11.22;53.63;98009.06;5129785;28;20015;-78
2023/04/08 08:35:57;;;;;;;1999.90;999.90;;;;;;;11.77;47.72;98016.38;5132387;27;20027;-80
2023/04/08 08:38:23;;;;;;;1999.90;999.90;;;;;;;12.58;45.81;98024.94;5134626;27;20357;-78
2023/04/08 08:40:56;;;;;;;1999.90;999.90;;;;;;;13.51;44.83;98026.13;5134449;27;20023;-81
2023/04/08 08:43:23;;;;;;;1999.90;999.90;;;;;;;13.00;45.56;98010.03;5133352;27;20031;-82
2023/04/08 08:45:48;;;;;;;1999.90;999.90;;;;;;;12.38;46.42;98015.19;5136105;27;20043;-82
2023/04/08 08:48:14;;;;;;;1999.90;999.90;;;;;;;12.04;47.19;98012.03;5139768;27;20016;-85
2023/04/08 08:50:39;;;;;;;1999.90;999.90;;;;;;;11.84;47.38;98012.44;5139321;27;20118;-82
2023/04/08 08:53:05;;;;;;;1999.90;999.90;;;;;;;11.13;48.38;98013.59;5137073;27;20070;-81
2023/04/08 08:55:32;;;;;;;1999.90;999.90;;;;;;;11.21;48.82;98021.13;5137342;27;20489;-87
2023/04/08 08:57:59;;;;;;;1999.90;999.90;;;;;;;10.24;52.67;98017.28;5142218;27;20020;-85
2023/04/08 09:00:39;;;;;;;1999.90;999.90;;;;;;;10.85;51.52;98017.28;5141138;27;20062;-84
2023/04/08 09:03:16;;;;;;;1999.90;999.90;;;;;;;10.95;51.20;98019.88;5136634;27;20077;-87
2023/04/08 09:05:55;;;;;;;1999.90;999.90;;;;;;;11.13;51.16;98025.34;5119076;28;20031;-84
2023/04/08 09:08:25;;;;;;;1999.90;999.90;;;;;;;11.00;46.78;98028.00;5119561;28;20089;-78
2023/04/08 09:10:51;;;;;;;1999.90;999.90;;;;;;;11.14;46.88;98012.47;5128258;27;20027;-80
2023/04/08 09:13:16;;;;;;;1999.90;999.90;;;;;;;10.92;47.17;98031.41;5136888;27;20498;-79
2023/04/08 09:16:02;;;;;;;1999.90;999.90;;;;;;;10.05;49.59;98034.41;5134734;27;20031;-82
2023/04/08 09:18:27;;;;;;;1999.90;999.90;;;;;;;10.69;48.16;98033.91;5119508;28;20024;-86
2023/04/08 09:20:54;;;;;;;1999.90;999.90;;;;;;;11.02;47.68;98029.38;5124168;27;20383;-75
2023/04/08 09:23:19;;;;;;;1999.90;999.90;;;;;;;10.91;46.59;98016.09;5120427;27;20031;-75
2023/04/08 09:25:48;;;;;;;1999.90;999.90;;;;;;;10.49;47.53;98028.72;5117829;27;20118;-74
2023/04/08 09:28:20;;;;;;;1999.90;999.90;;;;;;;10.76;47.16;98025.34;5134620;27;20023;-77
2023/04/08 09:30:51;;;;;;;1999.90;999.90;;;;;;;10.00;48.49;98025.44;5109631;27;20546;-82
2023/04/08 09:33:16;;;;;;;1999.90;999.90;;;;;;;10.65;46.93;98032.88;5144007;27;20033;-84
2023/04/08 09:35:45;;;;;;;1999.90;999.90;;;;;;;11.07;46.02;98039.41;5134140;27;20047;-80
2023/04/08 09:38:11;;;;;;;1999.90;999.90;;;;;;;11.36;45.00;98039.25;5139499;27;20031;-79
2023/04/08 09:40:38;;;;;;;1999.90;999.90;;;;;;;11.56;45.00;98038.94;5137450;27;20110;-87
2023/04/08 09:43:08;;;;;;;1999.90;999.90;;;;;;;11.29;45.49;98037.69;5135617;27;20023;-78
2023/04/08 09:45:35;;;;;;;1999.90;999.90;;;;;;;11.35;45.17;98030.22;5134529;27;20109;-75
2023/04/08 09:48:18;;;;;;;1999.90;999.90;;;;;;;11.59;44.26;98041.06;5132296;27;20034;-74
2023/04/08 09:50:49;;;;;;;1999.90;999.90;;;;;;;11.48;44.83;98034.94;5120263;27;20028;-74
2023/04/08 09:53:33;;;;;;;1999.90;999.90;;;;;;;11.62;44.47;98034.97;5131328;27;20531;-75
2023/04/08 09:56:01;;;;;;;1999.90;999.90;;;;;;;11.63;44.23;98023.72;5124667;27;20475;-75
2023/04/08 09:58:37;;;;;;;1999.90;999.90;;;;;;;11.79;43.95;98036.06;5129357;27;20027;-76
2023/04/08 10:01:04;;;;;;;1999.90;999.90;;;;;;;11.92;43.79;98034.47;5130092;27;20114;-76
2023/04/08 10:03:35;;;;;;;1999.90;999.90;;;;;;;12.31;42.90;98036.72;5131564;27;20027;-77
2023/04/08 10:06:02;;;;;;;1999.90;999.90;;;;;;;12.09;43.21;98033.91;5132543;27;20021;-76
2023/04/08 10:08:31;;;;;;;1999.90;999.90;;;;;;;11.81;43.06;98038.50;5131385;27;20110;-78
2023/04/08 10:10:57;;;;;;;1999.90;999.90;;;;;;;10.77;45.49;98032.47;5132802;27;20038;-75
2023/04/08 10:13:24;;;;;;;1999.90;999.90;;;;;;;11.73;43.89;98026.31;5119993;27;20626;-76
2023/04/08 10:15:49;;;;;;;1999.90;999.90;;;;;;;12.12;43.36;98038.78;5133094;27;20031;-79
2023/04/08 10:18:18;;;;;;;1999.90;999.90;;;;;;;12.21;42.77;98039.69;5132305;27;20026;-76
2023/04/08 10:20:45;;;;;;;1999.90;999.90;;;;;;;12.70;42.83;98039.78;5116191;27;20054;-76
2023/04/08 10:23:15;;;;;;;1999.90;999.90;;;;;;;13.14;41.80;98047.34;5132827;27;20019;-74
2023/04/08 10:25:46;;;;;;;1999.90;999.90;;;;;;;13.68;41.31;98045.50;5132419;27;20033;-77
2023/04/08 10:28:11;;;;;;;1999.90;999.90;;;;;;;14.24;40.10;98042.09;5134682;27;20462;-84
2023/04/08 10:30:37;;;;;;;1999.90;999.90;;;;;;;14.43;40.30;98037.22;5135972;27;20031;-77
2023/04/08 10:33:12;;;;;;;1999.90;999.90;;;;;;;14.32;40.97;98038.56;5137034;27;20033;-73
2023/04/08 10:35:46;;;;;;;;;;;;;;;14.56;40.28;98043.72;5132535;27;20045;-73
2023/04/08 10:38:12;;;;;;;1999.90;999.90;;;;;;;14.80;40.30;98042.19;5129460;27;19925;-74
2023/04/08 10:40:40;;;;;;;1999.90;999.90;;;;;;;15.10;39.41;98032.16;5131708;27;20017;-73
2023/04/08 10:43:06;;;;;;;1999.90;999.90;;;;;;;15.21;39.47;98039.00;5131068;27;20038;-73
2023/04/08 10:45:32;;;;;;;1999.90;999.90;;;;;;;14.76;39.62;98040.38;5130464;27;20038;-73
2023/04/08 10:48:21;;;;;;;1999.90;999.90;;;;;;;14.54;40.91;98032.22;5130957;27;20024;-73
2023/04/08 10:50:54;;;;;;;1999.90;999.90;;;;;;;15.05;40.05;98035.09;5116221;27;20059;-73
2023/04/08 10:53:38;;;;;;;1999.90;999.90;;;;;;;15.49;39.75;98023.78;5114856;27;20020;-74
2023/04/08 10:56:05;;;;;;;1999.90;999.90;;;;;;;15.63;40.00;98036.59;5131164;27;20035;-74
2023/04/08 10:58:31;;;;;;;1999.90;999.90;;;;;;;15.15;40.21;98021.00;5113181;27;20418;-74